Okeanos Explorer — WTDH — position and weather

sailwx.info

Track history (hours):
 
Tides and Currents Weather Stations Pressure Air Temp Water Temp Dewpoint Dewpoint Depression Visibility Wind Speed Wind Dir Waves Ship Positions

Oceanographic research ship Okeanos Explorer (USA)

Ship's website: http://oceanexplorer.noaa.gov/okeanos/

Last reported at 2017-Mar-23 19:00 UTC. Time now 2017-Mar-23 20:09 UTC.
Position S 04°24' W 173°00'.

Length 69 m; draft 5 m.

Type: Other ship. MMSI: 369888000.

Wind from 100 at 17 knots

Barometer 1011.3 mb
Water temperature 28.5 ° C

Date/timePositionNaut miles runAvg speedWind from/ knotsBaromVisibWave heightAir tempDewpointWater temp
2017-Mar-23 19:00S 04°24' W 173°00'0 0.0 100 / 171011.3 28.5
2017-Mar-23 18:00S 04°24' W 173°00'0 0.0 090 / 161010.5 28.5
2017-Mar-23 17:00S 04°24' W 173°00'0 0.0 090 / 151010.0 28.5
2017-Mar-23 16:00S 04°24' W 173°00'8 8.5 090 / 141009.5 28.6
2017-Mar-23 15:00S 04°18' W 173°06'1313.4 070 / 151005.9 5.4 28.225.428.5
2017-Mar-23 14:00S 04°24' W 173°18'6 6.0 080 / 141009.2 28.6
2017-Mar-23 13:00S 04°24' W 173°24'8 8.5 070 / 141009.9 28.6
2017-Mar-23 12:00S 04°18' W 173°30'1313.4 080 / 131007.1 5.4 28.525.828.5
2017-Mar-23 11:00S 04°12' W 173°42'6 6.0 060 / 151011.1 28.1
2017-Mar-23 10:00S 04°12' W 173°48'8 8.5 070 / 151011.5 28.7
2017-Mar-23 09:00S 04°06' W 173°54'1313.4 070 / 151011.6 28.8
2017-Mar-23 08:00S 04°00' W 174°06'8 8.5 060 / 161011.0 28.9
2017-Mar-23 07:00S 03°54' W 174°12'8 8.5 060 / 151010.3 28.9
2017-Mar-23 06:00S 03°48' W 174°18'6 6.0 060 / 141005.0 2.2 28.025.228.0
2017-Mar-23 05:00S 03°48' W 174°24'8 8.5 070 / 121009.2 28.6
2017-Mar-23 04:00S 03°42' W 174°30'1313.4 070 / 131009.1 28.6
2017-Mar-23 03:00S 03°30' W 174°36'8 8.5 080 / 111008.8 5.4 28.425.728.2
2017-Mar-23 02:00S 03°24' W 174°42'0 0.0 060 / 111009.2 28.1
2017-Mar-23 01:00S 03°24' W 174°42'0 0.0 080 / 111009.5 28.1
2017-Mar-23 00:00S 03°24' W 174°42'0 0.0 070 / 111010.3 5.4 28.825.628.0
2017-Mar-22 23:00S 03°24' W 174°42'0 0.0 080 / 121011.0 27.9
2017-Mar-22 22:00S 03°24' W 174°42'0 0.0 090 / 121011.6 27.8
2017-Mar-22 21:00S 03°24' W 174°42'0 0.0 080 / 131011.7 27.7
2017-Mar-22 20:00S 03°24' W 174°42'0 0.0 090 / 151011.7 27.7
2017-Mar-22 19:00S 03°24' W 174°42'0 0.0 100 / 141011.2 27.7
2017-Mar-22 18:00S 03°24' W 174°42'0 0.0 090 / 121010.5 27.7
2017-Mar-22 17:00S 03°24' W 174°42'0 0.0 070 / 131010.0 27.7
2017-Mar-22 16:00S 03°24' W 174°42'6 6.0 080 / 111009.5 27.7
2017-Mar-22 15:00S 03°18' W 174°42'6 6.0 060 / 121009.4 27.7
2017-Mar-22 14:00S 03°12' W 174°42'1212.0 080 / 141009.5 27.7
2017-Mar-22 13:00S 03°00' W 174°42'1212.0 080 / 141009.9 27.6
2017-Mar-22 12:00S 02°48' W 174°42'8 8.5 080 / 131010.7 5.4 27.925.927.7
2017-Mar-22 11:00S 02°42' W 174°48'8 8.5 080 / 111011.4 27.7
2017-Mar-22 10:00S 02°36' W 174°54'8 8.5 090 / 131011.6 27.6
2017-Mar-22 09:00S 02°30' W 175°00'1212.0 090 / 121011.6 27.6
2017-Mar-22 08:00S 02°18' W 175°00'8 8.5 090 / 141011.4 27.6
2017-Mar-22 07:00S 02°12' W 175°06'1818.0 080 / 141010.7 27.7
2017-Mar-22 06:00S 01°54' W 175°06'8 8.5 090 / 131005.0 1.1 28.025.227.0
2017-Mar-22 05:00S 01°48' W 175°12'6 6.0 090 / 141009.3 27.6
2017-Mar-22 04:00S 01°42' W 175°12'0 0.0 080 / 151009.0 27.7
2017-Mar-22 03:00S 01°42' W 175°12'0 0.0 110 / 141009.1 5.4 27.825.827.7
2017-Mar-22 02:00S 01°42' W 175°12'0 0.0 120 / 121009.2 27.6
2017-Mar-22 01:00S 01°42' W 175°12'0 0.0 120 / 121009.6 27.5
2017-Mar-22 00:00S 01°42' W 175°12'0 0.0 110 / 121010.5 27.5
2017-Mar-21 23:00S 01°42' W 175°12'0 0.0 120 / 121011.1 27.4
2017-Mar-21 22:00S 01°42' W 175°12'0 0.0 100 / 111011.9 27.3
2017-Mar-21 21:00S 01°42' W 175°12'0 0.0 090 / 121012.4 27.3
2017-Mar-21 20:00S 01°42' W 175°12'0 0.0 090 / 111011.9 27.2
2017-Mar-21 19:00S 01°42' W 175°12'6 6.0 100 / 111011.5 27.2
2017-Mar-21 18:00S 01°36' W 175°12'6 6.0 090 / 131007.0 5.4 26.925.527.2
2017-Mar-21 17:00S 01°42' W 175°12'0 0.0 100 / 131010.1 27.2
2017-Mar-21 16:00S 01°42' W 175°12'6 6.0 080 / 131009.8 27.3
2017-Mar-21 15:00S 01°48' W 175°12'1212.0 070 / 121010.0 27.3
2017-Mar-21 14:00S 01°36' W 175°12'8 8.5 070 / 121010.2 27.3
2017-Mar-21 13:00S 01°30' W 175°18'6 6.0 070 / 121010.5 27.3
2017-Mar-21 12:00S 01°24' W 175°18'8 8.5 070 / 141011.2 27.4
2017-Mar-21 11:00S 01°18' W 175°24'1313.4 070 / 141012.0 27.3
2017-Mar-21 10:00S 01°06' W 175°30'8 8.5 070 / 151012.1 27.3
2017-Mar-21 09:00S 01°00' W 175°36'8 8.5 080 / 151011.9 27.3
2017-Mar-21 08:00S 00°54' W 175°42'8 8.5 070 / 131011.6 27.3
2017-Mar-21 07:00S 00°48' W 175°48'1313.4 080 / 131010.9 27.3
2017-Mar-21 06:00S 00°36' W 175°54'6 6.0 070 / 121005.0 1.1 28.025.227.0
2017-Mar-21 05:00S 00°36' W 176°00'8 8.5 060 / 121009.4 27.4
2017-Mar-21 04:00S 00°30' W 176°06'6 6.0 070 / 121008.8 27.4
2017-Mar-21 03:00S 00°24' W 176°06'0 0.0 080 / 111008.7 27.5
2017-Mar-21 02:00S 00°24' W 176°06'0 0.0 090 / 101008.7 27.5
2017-Mar-21 01:00S 00°24' W 176°06'0 0.0 070 / 111009.3 27.4
2017-Mar-21 00:00S 00°24' W 176°06'0 0.0 090 / 111009.8 27.3
2017-Mar-20 23:00S 00°24' W 176°06'0 0.0 090 / 131010.4 27.2
2017-Mar-20 22:00S 00°24' W 176°06'0 0.0 090 / 131010.9 27.1
2017-Mar-20 21:00S 00°24' W 176°06'0 0.0 110 / 121011.1 27.0
2017-Mar-20 20:00S 00°24' W 176°06'0 0.0 110 / 121010.9 27.0
2017-Mar-20 19:00S 00°24' W 176°06'0 0.0 110 / 111010.5 27.0
2017-Mar-20 18:00S 00°24' W 176°06'0 0.0 090 / 121010.1 27.0
2017-Mar-20 17:00S 00°24' W 176°06'0 0.0 110 / 141009.2 27.0
2017-Mar-20 16:00S 00°24' W 176°06'6 6.0 110 / 151009.0 27.0
2017-Mar-20 15:00S 00°24' W 176°00'6 6.0 090 / 141009.2 5.4 26.425.027.0
2017-Mar-20 14:00S 00°24' W 175°54'6 6.0 080 / 121009.1 27.1
2017-Mar-20 13:00S 00°24' W 175°48'8 8.5 080 / 121009.5 27.1
2017-Mar-20 12:00S 00°18' W 175°42'8 8.5 080 / 121010.2 27.1
2017-Mar-20 11:00S 00°12' W 175°36'6 6.0 070 / 111010.8 27.2
2017-Mar-20 10:00S 00°06' W 175°36'8 8.5 070 / 131011.0 27.3
2017-Mar-20 09:00N 00°00' W 175°42'6 6.0 070 / 151010.9 27.3
2017-Mar-20 08:00N 00°00' W 175°48'1212.0 110 / 111010.6 27.4
2017-Mar-20 07:00N 00°00' W 176°00'8 8.5 110 / 101009.8 27.4
2017-Mar-20 06:00N 00°06' W 176°06'6 6.0 110 / 111009.2 27.5
2017-Mar-20 05:00N 00°06' W 176°12'6 6.0 100 / 91008.8 27.4
2017-Mar-20 04:00N 00°06' W 176°18'1313.4 130 / 81008.2 27.4
2017-Mar-20 03:00N 00°12' W 176°30'6 6.0 100 / 71008.3 28.2
2017-Mar-20 02:00N 00°06' W 176°30'0 0.0 100 / 61008.5 27.4
2017-Mar-20 01:00N 00°06' W 176°30'0 0.0 100 / 71009.5 27.5
2017-Mar-20 00:00N 00°06' W 176°30'0 0.0 090 / 71010.2 27.3
2017-Mar-19 23:00N 00°06' W 176°30'0 0.0 110 / 61010.6 27.2
2017-Mar-19 22:00N 00°06' W 176°30'0 0.0 100 / 81011.0 27.2
2017-Mar-19 21:00N 00°06' W 176°30'6 6.0 100 / 91011.4 27.0
2017-Mar-19 20:00N 00°06' W 176°24'6 6.0 080 / 111006.0 5.4 28.025.227.0
2017-Mar-19 19:00N 00°06' W 176°30'6 6.0 070 / 111010.7 27.0
2017-Mar-19 18:00N 00°06' W 176°24'6 6.0 090 / 101006.0 5.4 26.425.127.6
2017-Mar-19 17:00N 00°06' W 176°30'0 0.0 070 / 101009.3 27.0
2017-Mar-19 16:00N 00°06' W 176°30'6 6.0 080 / 121008.8 27.0
2017-Mar-19 15:00N 00°00' W 176°30'1212.0 080 / 121009.0 27.1
2017-Mar-19 14:00S 00°12' W 176°30'6 6.0 090 / 141009.2 27.1
2017-Mar-19 13:00S 00°12' W 176°24'6 6.0 080 / 121009.7 27.0
2017-Mar-19 12:00S 00°12' W 176°30'6 6.0 060 / 111010.0 27.1
2017-Mar-19 11:00S 00°12' W 176°36'8 8.5 070 / 111010.4 27.2
2017-Mar-19 10:00S 00°06' W 176°42'6 6.0 070 / 141010.6 27.2
2017-Mar-19 09:00N 00°00' W 176°42'1212.0 050 / 121010.5 27.2
2017-Mar-19 08:00N 00°12' W 176°42'6 6.0 060 / 141010.4 27.1
2017-Mar-19 07:00N 00°18' W 176°42'1212.0 060 / 141009.6 27.1
2017-Mar-19 06:00N 00°30' W 176°42'8 8.5 070 / 101009.5 27.2
2017-Mar-19 05:00N 00°36' W 176°36'8 8.5 060 / 141008.7 27.2
2017-Mar-19 04:00N 00°42' W 176°42'6 6.0 060 / 141008.4 27.2
2017-Mar-19 03:00N 00°48' W 176°42'0 0.0 080 / 141008.3 27.1
2017-Mar-19 02:00N 00°48' W 176°42'0 0.0 080 / 131008.4 27.1
2017-Mar-19 01:00N 00°48' W 176°42'0 0.0 070 / 141008.7 27.0
2017-Mar-19 00:00N 00°48' W 176°42'0 0.0 080 / 121009.4 27.0
2017-Mar-18 23:00N 00°48' W 176°42'0 0.0 040 / 121010.0 27.1
2017-Mar-18 22:00N 00°48' W 176°42'0 0.0 040 / 131010.5 27.0
2017-Mar-18 21:00N 00°48' W 176°42'6 6.0 060 / 131011.0 26.9
2017-Mar-18 20:00N 00°48' W 176°36'6 6.0 080 / 141006.2 5.4 27.125.026.8
2017-Mar-18 19:00N 00°48' W 176°42'0 0.0 070 / 131010.4 26.9
2017-Mar-18 18:00N 00°48' W 176°42'0 0.0 060 / 111010.0 26.9
2017-Mar-18 17:00N 00°48' W 176°42'0 0.0 070 / 101009.7 26.9
2017-Mar-18 16:00N 00°48' W 176°42'6 6.0 090 / 111009.9 26.9
2017-Mar-18 15:00N 00°48' W 176°36'1212.0 070 / 101010.1 26.8
2017-Mar-18 14:00N 00°48' W 176°24'6 6.0 070 / 101010.3 26.8
2017-Mar-18 13:00N 00°54' W 176°24'6 6.0 070 / 121010.7 26.9
2017-Mar-18 12:00N 01°00' W 176°24'8 8.5 070 / 121011.2 26.9
2017-Mar-18 11:00N 01°06' W 176°30'6 6.0 070 / 121011.5 27.0
2017-Mar-18 10:00N 01°06' W 176°36'0 0.0 080 / 131011.6 27.0
2017-Mar-18 09:00N 01°06' W 176°36'1313.4 080 / 131011.5 27.0
2017-Mar-18 08:00N 01°00' W 176°24'6 6.0 080 / 121011.0 27.0
2017-Mar-18 07:00N 01°00' W 176°30'8 8.5 070 / 141010.1 27.0
2017-Mar-18 06:00N 01°06' W 176°36'6 6.0 080 / 151009.7 27.1
2017-Mar-18 05:00N 01°00' W 176°36'1212.0 090 / 171009.2 27.1
2017-Mar-18 04:00N 00°48' W 176°36'0 0.0 100 / 161008.7 27.1
2017-Mar-18 03:00N 00°48' W 176°36'0 0.0 080 / 151003.5 5.4 27.625.327.1
2017-Mar-18 02:00N 00°48' W 176°36'0 0.0 080 / 151008.5 27.1
2017-Mar-18 01:00N 00°48' W 176°36'0 0.0 080 / 141009.2 27.1
2017-Mar-18 00:00N 00°48' W 176°36'0 0.0 060 / 161009.6 5.4 28.225.227.0
2017-Mar-17 23:00N 00°48' W 176°36'0 0.0 090 / 131010.1 27.0
2017-Mar-17 22:00N 00°48' W 176°36'0 0.0 090 / 161010.5 26.9
2017-Mar-17 21:00N 00°48' W 176°36'0 0.0 080 / 181011.0 26.9
2017-Mar-17 20:00N 00°48' W 176°36'0 0.0 080 / 161010.8 26.9
2017-Mar-17 19:00N 00°48' W 176°36'6 6.0 080 / 171010.5 26.9
2017-Mar-17 18:00N 00°54' W 176°36'0 0.0 080 / 171005.0 0.5 25.025.027.0
2017-Mar-17 17:00N 00°54' W 176°36'8 8.5 080 / 191009.5 26.9
2017-Mar-17 16:00N 01°00' W 176°42'6 6.0 080 / 181009.2 27.0
2017-Mar-17 15:00N 01°06' W 176°42'1212.0 080 / 191009.1 27.0
2017-Mar-17 14:00N 01°18' W 176°42'0 0.0 070 / 171009.4 27.0
2017-Mar-17 13:00N 01°18' W 176°42'8 8.5 080 / 171009.9 27.1
2017-Mar-17 12:00N 01°24' W 176°36'8 8.5 070 / 161010.1 5.4 27.225.527.1
2017-Mar-17 11:00N 01°30' W 176°42'6 6.0 090 / 211011.0 27.2
2017-Mar-17 10:00N 01°24' W 176°42'0 0.0 090 / 191011.1 27.1
2017-Mar-17 09:00N 01°24' W 176°42'8 8.5 070 / 191011.0 27.2
2017-Mar-17 08:00N 01°30' W 176°48'1313.4 090 / 211010.4 27.2
2017-Mar-17 07:00N 01°18' W 176°42'6 6.0 090 / 221009.7 27.2
2017-Mar-17 06:00N 01°12' W 176°42'6 6.0 080 / 201009.2 27.2
2017-Mar-17 05:00N 01°06' W 176°42'1212.0 090 / 201008.7 27.2
2017-Mar-17 04:00N 00°54' W 176°42'6 6.0 090 / 191008.4 27.2
2017-Mar-17 03:00N 00°48' W 176°42'0 0.0 080 / 181008.5 27.0
2017-Mar-17 02:00N 00°48' W 176°42'0 0.0 070 / 171008.7 27.0
2017-Mar-17 01:00N 00°48' W 176°42'6 6.0 070 / 181009.3 27.0
2017-Mar-17 00:00N 00°48' W 176°36'6 6.0 070 / 191006.0 5.4 27.925.727.0
2017-Mar-16 23:00N 00°48' W 176°42'0 0.0 080 / 161010.5 27.0
2017-Mar-16 22:00N 00°48' W 176°42'0 0.0 080 / 181010.8 27.0
2017-Mar-16 21:00N 00°48' W 176°42'0 0.0 080 / 161010.9 27.0
2017-Mar-16 20:00N 00°48' W 176°42'0 0.0 080 / 181010.5 27.0
2017-Mar-16 19:00N 00°48' W 176°42'0 0.0 080 / 191010.2 27.0
2017-Mar-16 18:00N 00°48' W 176°42'0 0.0 090 / 161009.6 27.0
2017-Mar-16 17:00N 00°48' W 176°42'0 0.0 070 / 141009.3 27.0
2017-Mar-16 16:00N 00°48' W 176°42'6 6.0 090 / 181009.0 27.0
2017-Mar-16 15:00N 00°48' W 176°48'8 8.5 100 / 171008.7 27.0
2017-Mar-16 14:00N 00°42' W 176°54'8 8.5 110 / 191008.7 27.0
2017-Mar-16 13:00N 00°36' W 176°48'6 6.0 090 / 181009.2 27.0
2017-Mar-16 12:00N 00°30' W 176°48'6 6.0 100 / 171009.8 26.9
2017-Mar-16 11:00N 00°30' W 176°42'1313.4 070 / 201010.1 27.0
2017-Mar-16 10:00N 00°42' W 176°48'0 0.0 080 / 171010.3 27.1
2017-Mar-16 09:00N 00°42' W 176°48'8 8.5 090 / 181010.1 27.1
2017-Mar-16 08:00N 00°36' W 176°42'8 8.5 090 / 201009.5 27.0
2017-Mar-16 07:00N 00°30' W 176°36'1313.4 080 / 161008.9 27.0
2017-Mar-16 06:00N 00°24' W 176°24'6 6.0 020 / 181002.0 0.5 26.024.629.0
2017-Mar-16 05:00N 00°24' W 176°30'6 6.0 090 / 171007.6 27.1
2017-Mar-16 04:00N 00°18' W 176°30'6 6.0 090 / 171007.4 27.2
2017-Mar-16 03:00N 00°12' W 176°30'0 0.0 070 / 151007.5 27.2
2017-Mar-16 02:00N 00°12' W 176°30'0 0.0 080 / 151007.8 27.1
2017-Mar-16 01:00N 00°12' W 176°30'0 0.0 070 / 171008.1 27.2
2017-Mar-16 00:00N 00°12' W 176°30'0 0.0 070 / 131008.7 27.1
2017-Mar-15 23:00N 00°12' W 176°30'0 0.0 070 / 151009.6 27.0
2017-Mar-15 22:00N 00°12' W 176°30'0 0.0 060 / 171010.1 26.9
2017-Mar-15 21:00N 00°12' W 176°30'0 0.0 070 / 141010.5 26.9
2017-Mar-15 20:00N 00°12' W 176°30'0 0.0 090 / 151010.1 26.8
2017-Mar-15 19:00N 00°12' W 176°30'0 0.0 090 / 151009.8 26.8
2017-Mar-15 18:00N 00°12' W 176°30'6 6.0 100 / 131009.7 26.8
2017-Mar-15 17:00N 00°12' W 176°24'6 6.0 100 / 131009.3 26.8
2017-Mar-15 16:00N 00°12' W 176°18'1212.0 090 / 141009.0 26.8
2017-Mar-15 15:00N 00°12' W 176°06'8 8.5 090 / 131009.0 26.8
2017-Mar-15 14:00N 00°06' W 176°00'8 8.5 090 / 171008.8 26.8
2017-Mar-15 13:00N 00°00' W 175°54'8 8.5 090 / 161009.2 26.9
2017-Mar-15 12:00S 00°06' W 175°48'1212.0 090 / 191005.7 5.4 27.425.727.1
2017-Mar-15 11:00S 00°18' W 175°48'6 6.0 100 / 191010.2 27.2
2017-Mar-15 10:00S 00°18' W 175°54'6 6.0 070 / 171010.5 27.2
2017-Mar-15 09:00S 00°12' W 175°54'6 6.0 080 / 171010.2 27.2
2017-Mar-15 08:00S 00°06' W 175°54'6 6.0 070 / 141009.4 27.0
2017-Mar-15 07:00S 00°12' W 175°54'1212.0 090 / 211008.7 27.3
2017-Mar-15 06:00S 00°24' W 175°54'6 6.0 090 / 181008.3 27.3
2017-Mar-15 05:00S 00°24' W 176°00'6 6.0 070 / 191007.7 27.3
2017-Mar-15 04:00S 00°24' W 176°06'6 6.0 070 / 181007.5 27.4
2017-Mar-15 03:00S 00°24' W 176°12'0 0.0 080 / 131007.7 27.4
2017-Mar-15 02:00S 00°24' W 176°12'0 0.0 070 / 181007.8 27.3
2017-Mar-15 01:00S 00°24' W 176°12'0 0.0 090 / 161008.3 27.3
2017-Mar-15 00:00S 00°24' W 176°12'0 0.0 090 / 161008.8 27.2
2017-Mar-14 23:00S 00°24' W 176°12'0 0.0 080 / 171009.6 27.1
2017-Mar-14 22:00S 00°24' W 176°12'0 0.0 100 / 141010.1 27.0
2017-Mar-14 21:00S 00°24' W 176°12'0 0.0 100 / 171010.5 27.0
2017-Mar-14 20:00S 00°24' W 176°12'0 0.0 100 / 161010.3 26.9
2017-Mar-14 19:00S 00°24' W 176°12'0 0.0 090 / 161009.8 26.9
2017-Mar-14 18:00S 00°24' W 176°12'0 0.0 090 / 171009.6 26.9
2017-Mar-14 17:00S 00°24' W 176°12'6 6.0 090 / 161009.2 26.9
2017-Mar-14 16:00S 00°24' W 176°06'6 6.0 090 / 171004.0 5.4 27.025.327.3
2017-Mar-14 15:00S 00°24' W 176°12'6 6.0 100 / 171008.7 26.9
2017-Mar-14 14:00S 00°30' W 176°12'1212.0 090 / 211009.1 27.0
2017-Mar-14 13:00S 00°42' W 176°12'8 8.5 100 / 201009.3 27.3
2017-Mar-14 12:00S 00°48' W 176°06'1212.0 090 / 171006.0 5.4 27.525.227.3
2017-Mar-14 11:00S 01°00' W 176°06'13 6.7 090 / 211010.8 27.3
2017-Mar-14 09:00S 01°12' W 176°00'1212.0 090 / 201010.9 27.4
2017-Mar-14 08:00S 01°24' W 176°00'8 8.5 090 / 181010.3 27.4
2017-Mar-14 07:00S 01°30' W 175°54'1313.4 090 / 181009.7 27.4
2017-Mar-14 06:00S 01°36' W 175°42'6 6.0 090 / 151004.0 1.1 27.524.727.5
2017-Mar-14 05:00S 01°42' W 175°42'1212.0 070 / 161008.7 27.6
2017-Mar-14 04:00S 01°42' W 175°30'6 6.0 070 / 181008.3 27.6
2017-Mar-14 03:00S 01°42' W 175°24'0 0.0 080 / 171003.5 5.4 28.524.527.7
2017-Mar-14 02:00S 01°42' W 175°24'0 0.0 080 / 171008.5 27.7
2017-Mar-14 01:00S 01°42' W 175°24'0 0.0 080 / 181008.9 27.7
2017-Mar-14 00:00S 01°42' W 175°24'0 0.0 080 / 171009.6 27.6
2017-Mar-13 23:00S 01°42' W 175°24'0 0.0 090 / 181010.5 27.5
2017-Mar-13 22:00S 01°42' W 175°24'0 0.0 090 / 151011.1 27.4
2017-Mar-13 21:00S 01°42' W 175°24'8 8.5 090 / 171011.3 27.4
2017-Mar-13 20:00S 01°36' W 175°18'8 8.5 090 / 161007.1 5.4 29.024.827.3
2017-Mar-13 19:00S 01°42' W 175°24'   090 / 181010.7 27.4
Track history (hours):
 
Tides and Currents Weather Stations Pressure Air Temp Water Temp Dewpoint Dewpoint Depression Visibility Wind Speed Wind Dir Waves Ship Positions

Oceanographic research ship Okeanos Explorer (USA)

Ship's website: http://oceanexplorer.noaa.gov/okeanos/

Last reported at 2017-Mar-23 19:00 UTC. Time now 2017-Mar-23 20:09 UTC.
Position S 04°24' W 173°00'.

Length 69 m; draft 5 m.

Type: Other ship. MMSI: 369888000.

Wind from 100 at 17 knots

Barometer 1011.3 mb
Water temperature 28.5 ° C

Date/timePositionNaut miles runAvg speedWind from/ knotsBaromVisibWave heightAir tempDewpointWater temp
2017-Mar-23 19:00S 04°24' W 173°00'0 0.0 100 / 171011.3 28.5
2017-Mar-23 18:00S 04°24' W 173°00'0 0.0 090 / 161010.5 28.5
2017-Mar-23 17:00S 04°24' W 173°00'0 0.0 090 / 151010.0 28.5
2017-Mar-23 16:00S 04°24' W 173°00'8 8.5 090 / 141009.5 28.6
2017-Mar-23 15:00S 04°18' W 173°06'1313.4 070 / 151005.9 5.4 28.225.428.5
2017-Mar-23 14:00S 04°24' W 173°18'6 6.0 080 / 141009.2 28.6
2017-Mar-23 13:00S 04°24' W 173°24'8 8.5 070 / 141009.9 28.6
2017-Mar-23 12:00S 04°18' W 173°30'1313.4 080 / 131007.1 5.4 28.525.828.5
2017-Mar-23 11:00S 04°12' W 173°42'6 6.0 060 / 151011.1 28.1
2017-Mar-23 10:00S 04°12' W 173°48'8 8.5 070 / 151011.5 28.7
2017-Mar-23 09:00S 04°06' W 173°54'1313.4 070 / 151011.6 28.8
2017-Mar-23 08:00S 04°00' W 174°06'8 8.5 060 / 161011.0 28.9
2017-Mar-23 07:00S 03°54' W 174°12'8 8.5 060 / 151010.3 28.9
2017-Mar-23 06:00S 03°48' W 174°18'6 6.0 060 / 141005.0 2.2 28.025.228.0
2017-Mar-23 05:00S 03°48' W 174°24'8 8.5 070 / 121009.2 28.6
2017-Mar-23 04:00S 03°42' W 174°30'1313.4 070 / 131009.1 28.6
2017-Mar-23 03:00S 03°30' W 174°36'8 8.5 080 / 111008.8 5.4 28.425.728.2
2017-Mar-23 02:00S 03°24' W 174°42'0 0.0 060 / 111009.2 28.1
2017-Mar-23 01:00S 03°24' W 174°42'0 0.0 080 / 111009.5 28.1
2017-Mar-23 00:00S 03°24' W 174°42'0 0.0 070 / 111010.3 5.4 28.825.628.0
2017-Mar-22 23:00S 03°24' W 174°42'0 0.0 080 / 121011.0 27.9
2017-Mar-22 22:00S 03°24' W 174°42'0 0.0 090 / 121011.6 27.8
2017-Mar-22 21:00S 03°24' W 174°42'0 0.0 080 / 131011.7 27.7
2017-Mar-22 20:00S 03°24' W 174°42'0 0.0 090 / 151011.7 27.7
2017-Mar-22 19:00S 03°24' W 174°42'0 0.0 100 / 141011.2 27.7
2017-Mar-22 18:00S 03°24' W 174°42'0 0.0 090 / 121010.5 27.7
2017-Mar-22 17:00S 03°24' W 174°42'0 0.0 070 / 131010.0 27.7
2017-Mar-22 16:00S 03°24' W 174°42'6 6.0 080 / 111009.5 27.7
2017-Mar-22 15:00S 03°18' W 174°42'6 6.0 060 / 121009.4 27.7
2017-Mar-22 14:00S 03°12' W 174°42'1212.0 080 / 141009.5 27.7
2017-Mar-22 13:00S 03°00' W 174°42'1212.0 080 / 141009.9 27.6
2017-Mar-22 12:00S 02°48' W 174°42'8 8.5 080 / 131010.7 5.4 27.925.927.7
2017-Mar-22 11:00S 02°42' W 174°48'8 8.5 080 / 111011.4 27.7
2017-Mar-22 10:00S 02°36' W 174°54'8 8.5 090 / 131011.6 27.6
2017-Mar-22 09:00S 02°30' W 175°00'1212.0 090 / 121011.6 27.6
2017-Mar-22 08:00S 02°18' W 175°00'8 8.5 090 / 141011.4 27.6
2017-Mar-22 07:00S 02°12' W 175°06'1818.0 080 / 141010.7 27.7
2017-Mar-22 06:00S 01°54' W 175°06'8 8.5 090 / 131005.0 1.1 28.025.227.0
2017-Mar-22 05:00S 01°48' W 175°12'6 6.0 090 / 141009.3 27.6
2017-Mar-22 04:00S 01°42' W 175°12'0 0.0 080 / 151009.0 27.7
2017-Mar-22 03:00S 01°42' W 175°12'0 0.0 110 / 141009.1 5.4 27.825.827.7
2017-Mar-22 02:00S 01°42' W 175°12'0 0.0 120 / 121009.2 27.6
2017-Mar-22 01:00S 01°42' W 175°12'0 0.0 120 / 121009.6 27.5
2017-Mar-22 00:00S 01°42' W 175°12'0 0.0 110 / 121010.5 27.5
2017-Mar-21 23:00S 01°42' W 175°12'0 0.0 120 / 121011.1 27.4
2017-Mar-21 22:00S 01°42' W 175°12'0 0.0 100 / 111011.9 27.3
2017-Mar-21 21:00S 01°42' W 175°12'0 0.0 090 / 121012.4 27.3
2017-Mar-21 20:00S 01°42' W 175°12'0 0.0 090 / 111011.9 27.2
2017-Mar-21 19:00S 01°42' W 175°12'6 6.0 100 / 111011.5 27.2
2017-Mar-21 18:00S 01°36' W 175°12'6 6.0 090 / 131007.0 5.4 26.925.527.2
2017-Mar-21 17:00S 01°42' W 175°12'0 0.0 100 / 131010.1 27.2
2017-Mar-21 16:00S 01°42' W 175°12'6 6.0 080 / 131009.8 27.3
2017-Mar-21 15:00S 01°48' W 175°12'1212.0 070 / 121010.0 27.3
2017-Mar-21 14:00S 01°36' W 175°12'8 8.5 070 / 121010.2 27.3
2017-Mar-21 13:00S 01°30' W 175°18'6 6.0 070 / 121010.5 27.3
2017-Mar-21 12:00S 01°24' W 175°18'8 8.5 070 / 141011.2 27.4
2017-Mar-21 11:00S 01°18' W 175°24'1313.4 070 / 141012.0 27.3
2017-Mar-21 10:00S 01°06' W 175°30'8 8.5 070 / 151012.1 27.3
2017-Mar-21 09:00S 01°00' W 175°36'8 8.5 080 / 151011.9 27.3
2017-Mar-21 08:00S 00°54' W 175°42'8 8.5 070 / 131011.6 27.3
2017-Mar-21 07:00S 00°48' W 175°48'1313.4 080 / 131010.9 27.3
2017-Mar-21 06:00S 00°36' W 175°54'6 6.0 070 / 121005.0 1.1 28.025.227.0
2017-Mar-21 05:00S 00°36' W 176°00'8 8.5 060 / 121009.4 27.4
2017-Mar-21 04:00S 00°30' W 176°06'6 6.0 070 / 121008.8 27.4
2017-Mar-21 03:00S 00°24' W 176°06'0 0.0 080 / 111008.7 27.5
2017-Mar-21 02:00S 00°24' W 176°06'0 0.0 090 / 101008.7 27.5
2017-Mar-21 01:00S 00°24' W 176°06'0 0.0 070 / 111009.3 27.4
2017-Mar-21 00:00S 00°24' W 176°06'0 0.0 090 / 111009.8 27.3
2017-Mar-20 23:00S 00°24' W 176°06'0 0.0 090 / 131010.4 27.2
2017-Mar-20 22:00S 00°24' W 176°06'0 0.0 090 / 131010.9 27.1
2017-Mar-20 21:00S 00°24' W 176°06'0 0.0 110 / 121011.1 27.0
2017-Mar-20 20:00S 00°24' W 176°06'0 0.0 110 / 121010.9 27.0
2017-Mar-20 19:00S 00°24' W 176°06'0 0.0 110 / 111010.5 27.0
2017-Mar-20 18:00S 00°24' W 176°06'0 0.0 090 / 121010.1 27.0
2017-Mar-20 17:00S 00°24' W 176°06'0 0.0 110 / 141009.2 27.0
2017-Mar-20 16:00S 00°24' W 176°06'6 6.0 110 / 151009.0 27.0
2017-Mar-20 15:00S 00°24' W 176°00'6 6.0 090 / 141009.2 5.4 26.425.027.0
2017-Mar-20 14:00S 00°24' W 175°54'6 6.0 080 / 121009.1 27.1
2017-Mar-20 13:00S 00°24' W 175°48'8 8.5 080 / 121009.5 27.1
2017-Mar-20 12:00S 00°18' W 175°42'8 8.5 080 / 121010.2 27.1
2017-Mar-20 11:00S 00°12' W 175°36'6 6.0 070 / 111010.8 27.2
2017-Mar-20 10:00S 00°06' W 175°36'8 8.5 070 / 131011.0 27.3
2017-Mar-20 09:00N 00°00' W 175°42'6 6.0 070 / 151010.9 27.3
2017-Mar-20 08:00N 00°00' W 175°48'1212.0 110 / 111010.6 27.4
2017-Mar-20 07:00N 00°00' W 176°00'8 8.5 110 / 101009.8 27.4
2017-Mar-20 06:00N 00°06' W 176°06'6 6.0 110 / 111009.2 27.5
2017-Mar-20 05:00N 00°06' W 176°12'6 6.0 100 / 91008.8 27.4
2017-Mar-20 04:00N 00°06' W 176°18'1313.4 130 / 81008.2 27.4
2017-Mar-20 03:00N 00°12' W 176°30'6 6.0 100 / 71008.3 28.2
2017-Mar-20 02:00N 00°06' W 176°30'0 0.0 100 / 61008.5 27.4
2017-Mar-20 01:00N 00°06' W 176°30'0 0.0 100 / 71009.5 27.5
2017-Mar-20 00:00N 00°06' W 176°30'0 0.0 090 / 71010.2 27.3
2017-Mar-19 23:00N 00°06' W 176°30'0 0.0 110 / 61010.6 27.2
2017-Mar-19 22:00N 00°06' W 176°30'0 0.0 100 / 81011.0 27.2
2017-Mar-19 21:00N 00°06' W 176°30'6 6.0 100 / 91011.4 27.0
2017-Mar-19 20:00N 00°06' W 176°24'6 6.0 080 / 111006.0 5.4 28.025.227.0
2017-Mar-19 19:00N 00°06' W 176°30'6 6.0 070 / 111010.7 27.0
2017-Mar-19 18:00N 00°06' W 176°24'6 6.0 090 / 101006.0 5.4 26.425.127.6
2017-Mar-19 17:00N 00°06' W 176°30'0 0.0 070 / 101009.3 27.0
2017-Mar-19 16:00N 00°06' W 176°30'6 6.0 080 / 121008.8 27.0
2017-Mar-19 15:00N 00°00' W 176°30'1212.0 080 / 121009.0 27.1
2017-Mar-19 14:00S 00°12' W 176°30'6 6.0 090 / 141009.2 27.1
2017-Mar-19 13:00S 00°12' W 176°24'6 6.0 080 / 121009.7 27.0
2017-Mar-19 12:00S 00°12' W 176°30'6 6.0 060 / 111010.0 27.1
2017-Mar-19 11:00S 00°12' W 176°36'8 8.5 070 / 111010.4 27.2
2017-Mar-19 10:00S 00°06' W 176°42'6 6.0 070 / 141010.6 27.2
2017-Mar-19 09:00N 00°00' W 176°42'1212.0 050 / 121010.5 27.2
2017-Mar-19 08:00N 00°12' W 176°42'6 6.0 060 / 141010.4 27.1
2017-Mar-19 07:00N 00°18' W 176°42'1212.0 060 / 141009.6 27.1
2017-Mar-19 06:00N 00°30' W 176°42'8 8.5 070 / 101009.5 27.2
2017-Mar-19 05:00N 00°36' W 176°36'8 8.5 060 / 141008.7 27.2
2017-Mar-19 04:00N 00°42' W 176°42'6 6.0 060 / 141008.4 27.2
2017-Mar-19 03:00N 00°48' W 176°42'0 0.0 080 / 141008.3 27.1
2017-Mar-19 02:00N 00°48' W 176°42'0 0.0 080 / 131008.4 27.1
2017-Mar-19 01:00N 00°48' W 176°42'0 0.0 070 / 141008.7 27.0
2017-Mar-19 00:00N 00°48' W 176°42'0 0.0 080 / 121009.4 27.0
2017-Mar-18 23:00N 00°48' W 176°42'0 0.0 040 / 121010.0 27.1
2017-Mar-18 22:00N 00°48' W 176°42'0 0.0 040 / 131010.5 27.0
2017-Mar-18 21:00N 00°48' W 176°42'6 6.0 060 / 131011.0 26.9
2017-Mar-18 20:00N 00°48' W 176°36'6 6.0 080 / 141006.2 5.4 27.125.026.8
2017-Mar-18 19:00N 00°48' W 176°42'0 0.0 070 / 131010.4 26.9
2017-Mar-18 18:00N 00°48' W 176°42'0 0.0 060 / 111010.0 26.9
2017-Mar-18 17:00N 00°48' W 176°42'0 0.0 070 / 101009.7 26.9
2017-Mar-18 16:00N 00°48' W 176°42'6 6.0 090 / 111009.9 26.9
2017-Mar-18 15:00N 00°48' W 176°36'1212.0 070 / 101010.1 26.8
2017-Mar-18 14:00N 00°48' W 176°24'6 6.0 070 / 101010.3 26.8
2017-Mar-18 13:00N 00°54' W 176°24'6 6.0 070 / 121010.7 26.9
2017-Mar-18 12:00N 01°00' W 176°24'8 8.5 070 / 121011.2 26.9
2017-Mar-18 11:00N 01°06' W 176°30'6 6.0 070 / 121011.5 27.0
2017-Mar-18 10:00N 01°06' W 176°36'0 0.0 080 / 131011.6 27.0
2017-Mar-18 09:00N 01°06' W 176°36'1313.4 080 / 131011.5 27.0
2017-Mar-18 08:00N 01°00' W 176°24'6 6.0 080 / 121011.0 27.0
2017-Mar-18 07:00N 01°00' W 176°30'8 8.5 070 / 141010.1 27.0
2017-Mar-18 06:00N 01°06' W 176°36'6 6.0 080 / 151009.7 27.1
2017-Mar-18 05:00N 01°00' W 176°36'1212.0 090 / 171009.2 27.1
2017-Mar-18 04:00N 00°48' W 176°36'0 0.0 100 / 161008.7 27.1
2017-Mar-18 03:00N 00°48' W 176°36'0 0.0 080 / 151003.5 5.4 27.625.327.1
2017-Mar-18 02:00N 00°48' W 176°36'0 0.0 080 / 151008.5 27.1
2017-Mar-18 01:00N 00°48' W 176°36'0 0.0 080 / 141009.2 27.1
2017-Mar-18 00:00N 00°48' W 176°36'0 0.0 060 / 161009.6 5.4 28.225.227.0
2017-Mar-17 23:00N 00°48' W 176°36'0 0.0 090 / 131010.1 27.0
2017-Mar-17 22:00N 00°48' W 176°36'0 0.0 090 / 161010.5 26.9
2017-Mar-17 21:00N 00°48' W 176°36'0 0.0 080 / 181011.0 26.9
2017-Mar-17 20:00N 00°48' W 176°36'0 0.0 080 / 161010.8 26.9
2017-Mar-17 19:00N 00°48' W 176°36'6 6.0 080 / 171010.5 26.9
2017-Mar-17 18:00N 00°54' W 176°36'0 0.0 080 / 171005.0 0.5 25.025.027.0
2017-Mar-17 17:00N 00°54' W 176°36'8 8.5 080 / 191009.5 26.9
2017-Mar-17 16:00N 01°00' W 176°42'6 6.0 080 / 181009.2 27.0
2017-Mar-17 15:00N 01°06' W 176°42'1212.0 080 / 191009.1 27.0
2017-Mar-17 14:00N 01°18' W 176°42'0 0.0 070 / 171009.4 27.0
2017-Mar-17 13:00N 01°18' W 176°42'8 8.5 080 / 171009.9 27.1
2017-Mar-17 12:00N 01°24' W 176°36'8 8.5 070 / 161010.1 5.4 27.225.527.1
2017-Mar-17 11:00N 01°30' W 176°42'6 6.0 090 / 211011.0 27.2
2017-Mar-17 10:00N 01°24' W 176°42'0 0.0 090 / 191011.1 27.1
2017-Mar-17 09:00N 01°24' W 176°42'8 8.5 070 / 191011.0 27.2
2017-Mar-17 08:00N 01°30' W 176°48'1313.4 090 / 211010.4 27.2
2017-Mar-17 07:00N 01°18' W 176°42'6 6.0 090 / 221009.7 27.2
2017-Mar-17 06:00N 01°12' W 176°42'6 6.0 080 / 201009.2 27.2
2017-Mar-17 05:00N 01°06' W 176°42'1212.0 090 / 201008.7 27.2
2017-Mar-17 04:00N 00°54' W 176°42'6 6.0 090 / 191008.4 27.2
2017-Mar-17 03:00N 00°48' W 176°42'0 0.0 080 / 181008.5 27.0
2017-Mar-17 02:00N 00°48' W 176°42'0 0.0 070 / 171008.7 27.0
2017-Mar-17 01:00N 00°48' W 176°42'6 6.0 070 / 181009.3 27.0
2017-Mar-17 00:00N 00°48' W 176°36'6 6.0 070 / 191006.0 5.4 27.925.727.0
2017-Mar-16 23:00N 00°48' W 176°42'0 0.0 080 / 161010.5 27.0
2017-Mar-16 22:00N 00°48' W 176°42'0 0.0 080 / 181010.8 27.0
2017-Mar-16 21:00N 00°48' W 176°42'0 0.0 080 / 161010.9 27.0
2017-Mar-16 20:00N 00°48' W 176°42'0 0.0 080 / 181010.5 27.0
2017-Mar-16 19:00N 00°48' W 176°42'0 0.0 080 / 191010.2 27.0
2017-Mar-16 18:00N 00°48' W 176°42'0 0.0 090 / 161009.6 27.0
2017-Mar-16 17:00N 00°48' W 176°42'0 0.0 070 / 141009.3 27.0
2017-Mar-16 16:00N 00°48' W 176°42'6 6.0 090 / 181009.0 27.0
2017-Mar-16 15:00N 00°48' W 176°48'8 8.5 100 / 171008.7 27.0
2017-Mar-16 14:00N 00°42' W 176°54'8 8.5 110 / 191008.7 27.0
2017-Mar-16 13:00N 00°36' W 176°48'6 6.0 090 / 181009.2 27.0
2017-Mar-16 12:00N 00°30' W 176°48'6 6.0 100 / 171009.8 26.9
2017-Mar-16 11:00N 00°30' W 176°42'1313.4 070 / 201010.1 27.0
2017-Mar-16 10:00N 00°42' W 176°48'0 0.0 080 / 171010.3 27.1
2017-Mar-16 09:00N 00°42' W 176°48'8 8.5 090 / 181010.1 27.1
2017-Mar-16 08:00N 00°36' W 176°42'8 8.5 090 / 201009.5 27.0
2017-Mar-16 07:00N 00°30' W 176°36'1313.4 080 / 161008.9 27.0
2017-Mar-16 06:00N 00°24' W 176°24'6 6.0 020 / 181002.0 0.5 26.024.629.0
2017-Mar-16 05:00N 00°24' W 176°30'6 6.0 090 / 171007.6 27.1
2017-Mar-16 04:00N 00°18' W 176°30'6 6.0 090 / 171007.4 27.2
2017-Mar-16 03:00N 00°12' W 176°30'0 0.0 070 / 151007.5 27.2
2017-Mar-16 02:00N 00°12' W 176°30'0 0.0 080 / 151007.8 27.1
2017-Mar-16 01:00N 00°12' W 176°30'0 0.0 070 / 171008.1 27.2
2017-Mar-16 00:00N 00°12' W 176°30'0 0.0 070 / 131008.7 27.1
2017-Mar-15 23:00N 00°12' W 176°30'0 0.0 070 / 151009.6 27.0
2017-Mar-15 22:00N 00°12' W 176°30'0 0.0 060 / 171010.1 26.9
2017-Mar-15 21:00N 00°12' W 176°30'0 0.0 070 / 141010.5 26.9
2017-Mar-15 20:00N 00°12' W 176°30'0 0.0 090 / 151010.1 26.8
2017-Mar-15 19:00N 00°12' W 176°30'0 0.0 090 / 151009.8 26.8
2017-Mar-15 18:00N 00°12' W 176°30'6 6.0 100 / 131009.7 26.8
2017-Mar-15 17:00N 00°12' W 176°24'6 6.0 100 / 131009.3 26.8
2017-Mar-15 16:00N 00°12' W 176°18'1212.0 090 / 141009.0 26.8
2017-Mar-15 15:00N 00°12' W 176°06'8 8.5 090 / 131009.0 26.8
2017-Mar-15 14:00N 00°06' W 176°00'8 8.5 090 / 171008.8 26.8
2017-Mar-15 13:00N 00°00' W 175°54'8 8.5 090 / 161009.2 26.9
2017-Mar-15 12:00S 00°06' W 175°48'1212.0 090 / 191005.7 5.4 27.425.727.1
2017-Mar-15 11:00S 00°18' W 175°48'6 6.0 100 / 191010.2 27.2
2017-Mar-15 10:00S 00°18' W 175°54'6 6.0 070 / 171010.5 27.2
2017-Mar-15 09:00S 00°12' W 175°54'6 6.0 080 / 171010.2 27.2
2017-Mar-15 08:00S 00°06' W 175°54'6 6.0 070 / 141009.4 27.0
2017-Mar-15 07:00S 00°12' W 175°54'1212.0 090 / 211008.7 27.3
2017-Mar-15 06:00S 00°24' W 175°54'6 6.0 090 / 181008.3 27.3
2017-Mar-15 05:00S 00°24' W 176°00'6 6.0 070 / 191007.7 27.3
2017-Mar-15 04:00S 00°24' W 176°06'6 6.0 070 / 181007.5 27.4
2017-Mar-15 03:00S 00°24' W 176°12'0 0.0 080 / 131007.7 27.4
2017-Mar-15 02:00S 00°24' W 176°12'0 0.0 070 / 181007.8 27.3
2017-Mar-15 01:00S 00°24' W 176°12'0 0.0 090 / 161008.3 27.3
2017-Mar-15 00:00S 00°24' W 176°12'0 0.0 090 / 161008.8 27.2
2017-Mar-14 23:00S 00°24' W 176°12'0 0.0 080 / 171009.6 27.1
2017-Mar-14 22:00S 00°24' W 176°12'0 0.0 100 / 141010.1 27.0
2017-Mar-14 21:00S 00°24' W 176°12'0 0.0 100 / 171010.5 27.0
2017-Mar-14 20:00S 00°24' W 176°12'0 0.0 100 / 161010.3 26.9
2017-Mar-14 19:00S 00°24' W 176°12'0 0.0 090 / 161009.8 26.9
2017-Mar-14 18:00S 00°24' W 176°12'0 0.0 090 / 171009.6 26.9
2017-Mar-14 17:00S 00°24' W 176°12'6 6.0 090 / 161009.2 26.9
2017-Mar-14 16:00S 00°24' W 176°06'6 6.0 090 / 171004.0 5.4 27.025.327.3
2017-Mar-14 15:00S 00°24' W 176°12'6 6.0 100 / 171008.7 26.9
2017-Mar-14 14:00S 00°30' W 176°12'1212.0 090 / 211009.1 27.0
2017-Mar-14 13:00S 00°42' W 176°12'8 8.5 100 / 201009.3 27.3
2017-Mar-14 12:00S 00°48' W 176°06'1212.0 090 / 171006.0 5.4 27.525.227.3
2017-Mar-14 11:00S 01°00' W 176°06'13 6.7 090 / 211010.8 27.3
2017-Mar-14 09:00S 01°12' W 176°00'1212.0 090 / 201010.9 27.4
2017-Mar-14 08:00S 01°24' W 176°00'8 8.5 090 / 181010.3 27.4
2017-Mar-14 07:00S 01°30' W 175°54'1313.4 090 / 181009.7 27.4
2017-Mar-14 06:00S 01°36' W 175°42'6 6.0 090 / 151004.0 1.1 27.524.727.5
2017-Mar-14 05:00S 01°42' W 175°42'1212.0 070 / 161008.7 27.6
2017-Mar-14 04:00S 01°42' W 175°30'6 6.0 070 / 181008.3 27.6
2017-Mar-14 03:00S 01°42' W 175°24'0 0.0 080 / 171003.5 5.4 28.524.527.7
2017-Mar-14 02:00S 01°42' W 175°24'0 0.0 080 / 171008.5 27.7
2017-Mar-14 01:00S 01°42' W 175°24'0 0.0 080 / 181008.9 27.7
2017-Mar-14 00:00S 01°42' W 175°24'0 0.0 080 / 171009.6 27.6
2017-Mar-13 23:00S 01°42' W 175°24'0 0.0 090 / 181010.5 27.5
2017-Mar-13 22:00S 01°42' W 175°24'0 0.0 090 / 151011.1 27.4
2017-Mar-13 21:00S 01°42' W 175°24'8 8.5 090 / 171011.3 27.4
2017-Mar-13 20:00S 01°36' W 175°18'8 8.5 090 / 161007.1 5.4 29.024.827.3
2017-Mar-13 19:00S 01°42' W 175°24'   090 / 181010.7 27.4

Dump ship's entire track history